IS62 weather

John D Rennick Airport
Spring Bay, Illinois, United States

Public forecast

Using degrees Fahrenheit for public forecast. Weather courtesy of forecast.io.

Closest aviation weather report (METAR) to John D Rennick Airport

Closest report is Marshall County Airport, 9.6 nm (17.8 km) NNE. Retrieved 2020/05/28 12:15 UTC (20 minutes ago):

KC75 281215Z AUTO 19004KT 10SM OVC011 21/19 A2987 RMK AO2 T02050191

Closest aviation forecast (TAF) to John D Rennick Airport

Closest forecast is General Wayne A. Downing Peoria International Airport, 16.4 nm (30.3 km) SW. Retrieved 2020/05/28 12:22 UTC (13 minutes ago):

TAF KPIA 281120Z 2812/2912 19007KT P6SM VCSH BKN012 FM281600 22010KT P6SM SCT025 BKN060 FM282000 25009KT P6SM VCTS BKN040CB FM282300 29007KT 4SM -SHRA VCTS OVC030CB FM290200 33007KT P6SM VCSH OVC050 FM290800 34007KT P6SM BKN100